Upton, Texas
Current Conditions -  °F | °C
As of 11:15 AM on Monday 26 Jan 2015 (Local Time) from KGYB Reporting Station
Clear Clear  
Wind Chill: 62°   Ceiling: Unl
Heat Index: 62°   Visibility: 10mi
Dew Point: 32°   Wind: 5mph
Humidity: 33%   Direction: 300°WNW
Pressure: 30.31"   Gusts: NA
Location:  30.0743°N, 97.1141°W
Report Text: KGYB 261715Z AUTO 30004KT 10SM CLR 17/00 A3031 RMK AO2 T01650002
Loading
Personal Weather Stations






























Interactive Weather Map New forecast layout! Learn more

10-Day Weather Forecast

Advertisements
Track Severe Weather on mobile